createdAt,value
2022-10-27T00:00:22.356Z,10.37
2022-10-27T00:02:50.400Z,10.30
2022-10-27T00:05:18.243Z,10.19
2022-10-27T00:07:46.018Z,10.13
2022-10-27T00:10:15.385Z,10.05
2022-10-27T00:12:43.424Z,10.14
2022-10-27T00:15:12.424Z,10.16
2022-10-27T00:17:40.168Z,10.06
2022-10-27T00:20:09.482Z,10.03
2022-10-27T00:22:37.443Z,9.99
2022-10-27T00:25:06.069Z,10.04
2022-10-27T00:27:35.164Z,10.09
2022-10-27T00:30:02.882Z,10.09
2022-10-27T00:32:30.586Z,10.11
2022-10-27T00:34:58.464Z,10.09
2022-10-27T00:37:26.174Z,10.00
2022-10-27T00:39:53.883Z,9.95
2022-10-27T00:42:21.684Z,9.98
2022-10-27T00:44:50.813Z,10.01
2022-10-27T00:47:23.554Z,9.95
2022-10-27T00:49:58.481Z,9.93
2022-10-27T00:52:31.696Z,10.01
2022-10-27T00:55:03.924Z,10.03
2022-10-27T00:57:33.788Z,10.02
2022-10-27T01:00:05.094Z,10.01
2022-10-27T01:02:33.598Z,10.02
2022-10-27T01:05:06.125Z,10.05
2022-10-27T01:07:34.806Z,10.03
2022-10-27T01:10:02.922Z,9.94
2022-10-27T01:12:30.627Z,9.89
2022-10-27T01:14:58.354Z,9.85
2022-10-27T01:17:41.829Z,9.83
2022-10-27T01:20:46.231Z,9.84
2022-10-27T01:23:22.709Z,9.87
2022-10-27T01:26:26.455Z,9.81
2022-10-27T01:29:38.243Z,9.67
2022-10-27T01:32:17.848Z,9.49
2022-10-27T01:34:48.735Z,9.46
2022-10-27T01:37:21.553Z,9.36
2022-10-27T01:39:54.630Z,9.36
2022-10-27T01:42:27.576Z,9.37
2022-10-27T01:44:57.617Z,9.30
2022-10-27T01:47:28.377Z,9.31
2022-10-27T01:49:56.087Z,9.35
2022-10-27T01:52:44.167Z,9.37
2022-10-27T01:55:16.716Z,9.42
2022-10-27T01:58:02.768Z,9.47
2022-10-27T02:00:34.613Z,9.45
2022-10-27T02:03:11.093Z,9.43
2022-10-27T02:05:45.888Z,9.41
2022-10-27T02:08:21.428Z,9.37
2022-10-27T02:10:57.391Z,9.40
2022-10-27T02:13:26.059Z,9.39
2022-10-27T02:15:58.638Z,9.34
2022-10-27T02:18:31.853Z,9.37
2022-10-27T02:23:31.933Z,9.39
2022-10-27T02:26:04.946Z,9.36
2022-10-27T02:28:37.868Z,9.36
2022-10-27T02:31:07.576Z,9.36
2022-10-27T02:33:37.203Z,9.35
2022-10-27T02:36:05.408Z,9.31
2022-10-27T02:38:33.104Z,9.22
2022-10-27T02:41:00.820Z,9.17
2022-10-27T02:43:28.558Z,9.24
2022-10-27T02:45:56.259Z,9.22
2022-10-27T02:48:24.011Z,9.18
2022-10-27T02:50:53.061Z,9.07
2022-10-27T02:53:20.763Z,9.01
2022-10-27T02:55:48.487Z,9.05
2022-10-27T02:58:16.279Z,9.04
2022-10-27T03:00:44.032Z,9.09
2022-10-27T03:03:12.037Z,9.01
2022-10-27T03:05:39.737Z,8.89
2022-10-27T03:08:09.163Z,8.89
2022-10-27T03:10:36.875Z,8.89
2022-10-27T03:13:04.599Z,8.95
2022-10-27T03:15:32.340Z,8.96
2022-10-27T03:18:00.021Z,8.88
2022-10-27T03:20:27.986Z,8.84
2022-10-27T03:22:55.743Z,8.86
2022-10-27T03:25:24.901Z,8.79
2022-10-27T03:27:53.683Z,8.74
2022-10-27T03:30:21.500Z,8.61
2022-10-27T03:32:50.904Z,8.54
2022-10-27T03:35:20.111Z,8.50
2022-10-27T03:37:55.336Z,8.45
2022-10-27T03:40:24.601Z,8.41
2022-10-27T03:42:54.036Z,8.43
2022-10-27T03:45:21.803Z,8.44
2022-10-27T03:47:49.541Z,8.45
2022-10-27T03:50:17.471Z,8.40
2022-10-27T03:52:45.177Z,8.41
2022-10-27T03:55:12.886Z,8.49
2022-10-27T03:57:41.937Z,8.52
2022-10-27T04:00:11.131Z,8.56
2022-10-27T04:02:41.418Z,8.60
2022-10-27T04:05:10.054Z,8.64
2022-10-27T04:07:38.251Z,8.65
2022-10-27T04:10:06.855Z,8.68
2022-10-27T04:12:34.555Z,8.72
2022-10-27T04:15:03.786Z,8.74
2022-10-27T04:17:31.493Z,8.71
2022-10-27T04:19:59.143Z,8.66
2022-10-27T04:22:26.808Z,8.60
2022-10-27T04:24:54.554Z,8.50
2022-10-27T04:27:22.255Z,8.47
2022-10-27T04:29:49.959Z,8.48
2022-10-27T04:32:19.079Z,8.49
2022-10-27T04:34:46.800Z,8.48
2022-10-27T04:37:14.712Z,8.45
2022-10-27T04:39:42.426Z,8.47
2022-10-27T04:42:11.773Z,8.46
2022-10-27T04:44:39.499Z,8.47
2022-10-27T04:47:07.183Z,8.47
2022-10-27T04:49:36.236Z,8.47
2022-10-27T04:52:03.969Z,8.46
2022-10-27T04:54:31.820Z,8.43
2022-10-27T04:56:59.547Z,8.46
2022-10-27T04:59:27.317Z,8.46
2022-10-27T05:01:55.106Z,8.48
2022-10-27T05:04:22.904Z,8.49
2022-10-27T05:06:51.964Z,8.48
2022-10-27T05:09:19.682Z,8.48
2022-10-27T05:11:47.371Z,8.47
2022-10-27T05:14:15.087Z,8.48
2022-10-27T05:16:42.783Z,8.43
2022-10-27T05:19:10.454Z,8.37
2022-10-27T05:21:38.139Z,8.32
2022-10-27T05:24:07.688Z,8.33
2022-10-27T05:26:37.874Z,8.30
2022-10-27T05:29:05.947Z,8.28
2022-10-27T05:31:33.749Z,8.29
2022-10-27T05:34:01.434Z,8.30
2022-10-27T05:36:29.117Z,8.28
2022-10-27T05:38:56.849Z,8.27
2022-10-27T05:41:25.959Z,8.27
2022-10-27T05:43:53.776Z,8.25
2022-10-27T05:46:21.454Z,8.21
2022-10-27T05:48:49.249Z,8.21
2022-10-27T05:51:19.330Z,8.23
2022-10-27T05:53:51.453Z,8.23
2022-10-27T05:56:19.168Z,8.22
2022-10-27T05:58:48.179Z,8.21
2022-10-27T06:01:16.050Z,8.21
2022-10-27T06:03:43.776Z,8.18
2022-10-27T06:06:11.468Z,8.18
2022-10-27T06:08:39.175Z,8.21
2022-10-27T06:11:06.918Z,8.16
2022-10-27T06:13:34.603Z,8.13
2022-10-27T06:16:03.733Z,8.09
2022-10-27T06:18:31.459Z,8.06
2022-10-27T06:20:59.200Z,8.06
2022-10-27T06:23:27.012Z,8.04
2022-10-27T06:25:58.836Z,7.98
2022-10-27T06:28:26.944Z,8.05
2022-10-27T06:30:55.057Z,8.01
2022-10-27T06:33:24.098Z,8.00
2022-10-27T06:35:51.804Z,7.96
2022-10-27T06:38:19.487Z,7.97
2022-10-27T06:40:47.188Z,8.01
2022-10-27T06:43:15.663Z,8.08
2022-10-27T06:45:47.867Z,8.15
2022-10-27T06:48:15.725Z,8.22
2022-10-27T06:50:44.784Z,8.28
2022-10-27T06:53:12.495Z,8.33
2022-10-27T06:55:40.224Z,8.34
2022-10-27T06:58:07.900Z,8.33
2022-10-27T07:00:37.049Z,8.32
2022-10-27T07:05:41.718Z,8.39
2022-10-27T07:08:10.754Z,8.42
2022-10-27T07:10:38.504Z,8.46
2022-10-27T07:13:06.176Z,8.55
2022-10-27T07:15:37.009Z,8.59
2022-10-27T07:18:06.868Z,8.68
2022-10-27T07:20:35.986Z,8.76
2022-10-27T07:23:04.521Z,8.78
2022-10-27T07:25:34.977Z,8.84
2022-10-27T07:28:04.752Z,8.92
2022-10-27T07:30:34.531Z,9.03
2022-10-27T07:33:02.200Z,9.11
2022-10-27T07:35:30.380Z,9.20
2022-10-27T07:37:58.676Z,9.30
2022-10-27T07:40:28.976Z,9.40
2022-10-27T07:43:07.115Z,9.51
2022-10-27T07:45:36.794Z,9.62
2022-10-27T07:48:05.048Z,9.73
2022-10-27T07:50:34.029Z,9.81
2022-10-27T07:53:02.992Z,9.90
2022-10-27T07:55:32.843Z,9.99
2022-10-27T07:58:03.750Z,10.09
2022-10-27T08:00:34.375Z,10.20
2022-10-27T08:03:03.196Z,10.29
2022-10-27T08:05:31.284Z,10.40
2022-10-27T08:07:59.928Z,10.52
2022-10-27T08:10:28.500Z,10.65
2022-10-27T08:12:56.167Z,10.75
2022-10-27T08:15:25.308Z,10.89
2022-10-27T08:17:53.813Z,10.99
2022-10-27T08:20:22.502Z,11.09
2022-10-27T08:22:55.871Z,11.18
2022-10-27T08:25:23.572Z,11.29
2022-10-27T08:27:51.613Z,11.38
2022-10-27T08:30:20.151Z,11.49
2022-10-27T08:32:50.355Z,11.60
2022-10-27T08:35:18.843Z,11.71
2022-10-27T08:37:46.588Z,11.83
2022-10-27T08:40:14.647Z,11.95
2022-10-27T08:42:53.692Z,12.09
2022-10-27T08:45:27.432Z,12.23
2022-10-27T08:47:58.369Z,12.41
2022-10-27T08:50:28.721Z,12.57
2022-10-27T08:53:04.717Z,12.70
2022-10-27T08:55:36.887Z,12.86
2022-10-27T08:58:11.380Z,12.99
2022-10-27T09:00:49.441Z,13.19
2022-10-27T09:03:46.572Z,13.34
2022-10-27T09:06:19.899Z,13.53
2022-10-27T09:08:58.759Z,13.64
2022-10-27T09:11:38.401Z,13.74
2022-10-27T09:14:23.641Z,13.87
2022-10-27T09:16:56.044Z,14.02
2022-10-27T09:19:30.335Z,14.13
2022-10-27T09:21:58.752Z,14.24
2022-10-27T09:24:30.326Z,14.35
2022-10-27T09:27:00.220Z,14.44
2022-10-27T09:29:30.906Z,14.55
2022-10-27T09:32:01.416Z,14.65
2022-10-27T09:34:37.611Z,14.76
2022-10-27T09:37:13.564Z,14.90
2022-10-27T09:39:47.336Z,15.02
2022-10-27T09:42:15.905Z,15.13
2022-10-27T09:44:48.064Z,15.24
2022-10-27T09:47:15.840Z,15.36
2022-10-27T09:49:48.385Z,15.51
2022-10-27T09:52:21.000Z,15.64
2022-10-27T09:54:55.351Z,15.76
2022-10-27T09:57:28.985Z,15.86
2022-10-27T10:00:00.618Z,16.02
2022-10-27T10:02:31.404Z,16.21
2022-10-27T10:05:01.456Z,16.29
2022-10-27T10:07:32.863Z,16.37
2022-10-27T10:10:07.128Z,16.43
2022-10-27T10:12:35.213Z,16.54
2022-10-27T10:15:20.548Z,16.67
2022-10-27T10:17:57.554Z,16.83
2022-10-27T10:23:21.669Z,17.21
2022-10-27T10:25:50.472Z,17.40
2022-10-27T10:28:24.894Z,17.66
2022-10-27T10:30:54.452Z,17.89
2022-10-27T10:33:25.411Z,18.13
2022-10-27T10:35:55.145Z,18.36
2022-10-27T10:38:31.481Z,18.67
2022-10-27T10:41:07.676Z,18.91
2022-10-27T10:43:35.414Z,19.15
2022-10-27T10:46:04.213Z,19.36
2022-10-27T10:48:38.792Z,19.59
2022-10-27T10:51:09.712Z,19.78
2022-10-27T10:53:44.063Z,19.88
2022-10-27T10:56:23.533Z,20.08
2022-10-27T10:58:56.631Z,20.26
2022-10-27T11:01:24.509Z,20.48
2022-10-27T11:03:55.780Z,20.55
2022-10-27T11:06:24.880Z,20.67
2022-10-27T11:08:58.089Z,20.86
2022-10-27T11:11:29.752Z,20.99
2022-10-27T11:14:01.307Z,21.14
2022-10-27T11:16:32.209Z,21.33
2022-10-27T11:19:08.627Z,21.48
2022-10-27T11:21:41.909Z,21.61
2022-10-27T11:24:16.583Z,21.80
2022-10-27T11:27:03.617Z,21.91
2022-10-27T11:29:40.502Z,22.13
2022-10-27T11:32:15.963Z,22.26
2022-10-27T11:34:52.241Z,22.24
2022-10-27T11:37:29.776Z,22.28
2022-10-27T11:40:03.412Z,22.27
2022-10-27T11:42:39.876Z,22.37
2022-10-27T11:45:16.822Z,22.40
2022-10-27T11:47:47.455Z,22.35
2022-10-27T11:50:21.319Z,22.46
2022-10-27T11:52:53.498Z,22.57
2022-10-27T11:55:25.712Z,22.48
2022-10-27T11:58:00.736Z,22.50
2022-10-27T12:00:30.363Z,22.54
2022-10-27T12:03:17.987Z,22.70
2022-10-27T12:05:49.426Z,22.67
2022-10-27T12:08:25.546Z,22.71
2022-10-27T12:11:02.767Z,22.75
2022-10-27T12:13:35.277Z,22.76
2022-10-27T12:16:09.136Z,22.75
2022-10-27T12:18:43.512Z,22.79
2022-10-27T12:21:15.987Z,22.78
2022-10-27T12:23:49.459Z,22.75
2022-10-27T12:26:22.999Z,22.68
2022-10-27T12:28:51.564Z,22.67
2022-10-27T12:31:24.127Z,22.62
2022-10-27T12:33:56.821Z,22.61
2022-10-27T12:39:19.491Z,22.44
2022-10-27T12:41:53.269Z,22.46
2022-10-27T12:44:32.116Z,22.44
2022-10-27T12:47:14.772Z,22.40
2022-10-27T12:49:52.943Z,22.30
2022-10-27T12:52:23.580Z,22.24
2022-10-27T12:55:18.003Z,22.17
2022-10-27T12:57:55.121Z,22.18
2022-10-27T13:03:21.846Z,22.14
2022-10-27T13:06:08.791Z,22.10
2022-10-27T13:09:07.738Z,22.05
2022-10-27T13:12:08.955Z,21.97
2022-10-27T13:15:27.215Z,21.87
2022-10-27T13:18:05.084Z,21.83
2022-10-27T13:20:49.681Z,21.78
2022-10-27T13:23:25.183Z,21.78
2022-10-27T13:25:59.675Z,21.73
2022-10-27T13:28:34.479Z,21.71
2022-10-27T13:31:06.032Z,21.66
2022-10-27T13:33:36.918Z,21.64
2022-10-27T13:36:17.320Z,21.61
2022-10-27T13:38:45.280Z,21.56
2022-10-27T13:41:33.040Z,21.49
2022-10-27T13:44:00.748Z,21.45
2022-10-27T13:47:11.296Z,21.41
2022-10-27T13:49:57.163Z,21.33
2022-10-27T13:52:28.953Z,21.27
2022-10-27T13:54:59.599Z,21.23
2022-10-27T13:57:46.189Z,21.14
2022-10-27T14:00:18.061Z,21.06
2022-10-27T14:02:55.654Z,20.97
2022-10-27T14:05:32.551Z,20.90
2022-10-27T14:08:01.894Z,20.86
2022-10-27T14:10:30.459Z,20.79
2022-10-27T14:12:59.208Z,20.77
2022-10-27T14:15:28.592Z,20.67
2022-10-27T14:17:58.167Z,20.56
2022-10-27T14:20:30.248Z,20.49
2022-10-27T14:23:07.854Z,20.39
2022-10-27T14:25:35.821Z,20.31
2022-10-27T14:28:14.985Z,20.22
2022-10-27T14:30:43.190Z,20.13
2022-10-27T14:33:23.239Z,20.07
2022-10-27T14:36:06.627Z,20.01
2022-10-27T14:38:34.394Z,19.97
2022-10-27T14:41:02.778Z,19.91
2022-10-27T14:43:32.904Z,19.82
2022-10-27T14:46:02.684Z,19.76
2022-10-27T14:48:33.150Z,19.68
2022-10-27T14:51:11.785Z,19.65
2022-10-27T14:53:39.768Z,19.60
2022-10-27T14:56:17.860Z,19.55
2022-10-27T14:58:54.617Z,19.49
2022-10-27T15:01:27.658Z,19.45
2022-10-27T15:03:58.578Z,19.37
2022-10-27T15:06:32.393Z,19.31
2022-10-27T15:09:00.315Z,19.19
2022-10-27T15:11:28.322Z,19.07
2022-10-27T15:13:56.773Z,18.94
2022-10-27T15:16:29.138Z,18.79
2022-10-27T15:18:56.980Z,18.63
2022-10-27T15:21:28.130Z,18.57
2022-10-27T15:24:02.265Z,18.55
2022-10-27T15:26:31.384Z,18.40
2022-10-27T15:28:59.807Z,18.29
2022-10-27T15:31:27.931Z,18.20
2022-10-27T15:33:59.908Z,18.03
2022-10-27T15:36:29.259Z,17.89
2022-10-27T15:38:57.039Z,17.80
2022-10-27T15:41:27.143Z,17.55
2022-10-27T15:44:16.897Z,17.33
2022-10-27T15:46:45.995Z,17.13
2022-10-27T15:49:28.166Z,16.99
2022-10-27T15:51:59.234Z,16.92
2022-10-27T15:54:34.235Z,16.72
2022-10-27T15:57:03.083Z,16.62
2022-10-27T15:59:32.821Z,16.45
2022-10-27T16:02:21.415Z,16.31
2022-10-27T16:04:50.141Z,16.18
2022-10-27T16:07:33.212Z,16.09
2022-10-27T16:10:01.215Z,15.94
2022-10-27T16:12:41.767Z,15.81
2022-10-27T16:15:17.603Z,15.69
2022-10-27T16:17:48.456Z,15.64
2022-10-27T16:20:18.975Z,15.52
2022-10-27T16:22:48.203Z,15.37
2022-10-27T16:25:17.229Z,15.27
2022-10-27T16:27:45.283Z,15.15
2022-10-27T16:30:17.629Z,15.10
2022-10-27T16:32:46.459Z,14.99
2022-10-27T16:35:15.247Z,14.89
2022-10-27T16:37:43.326Z,14.84
2022-10-27T16:40:14.790Z,14.78
2022-10-27T16:42:45.812Z,14.75
2022-10-27T16:45:14.909Z,14.64
2022-10-27T16:47:43.085Z,14.52
2022-10-27T16:50:11.400Z,14.47
2022-10-27T16:52:39.283Z,14.43
2022-10-27T16:55:09.970Z,14.36
2022-10-27T16:57:41.006Z,14.25
2022-10-27T17:00:14.334Z,14.20
2022-10-27T17:02:42.255Z,14.18
2022-10-27T17:05:10.457Z,14.17
2022-10-27T17:07:39.031Z,14.08
2022-10-27T17:10:07.765Z,14.01
2022-10-27T17:12:35.466Z,13.96
2022-10-27T17:15:05.327Z,13.93
2022-10-27T17:17:33.029Z,13.92
2022-10-27T17:20:00.882Z,13.77
2022-10-27T17:22:28.617Z,13.69
2022-10-27T17:24:56.346Z,13.66
2022-10-27T17:27:24.023Z,13.62
2022-10-27T17:29:51.887Z,13.61
2022-10-27T17:32:20.970Z,13.51
2022-10-27T17:34:48.632Z,13.41
2022-10-27T17:37:16.323Z,13.37
2022-10-27T17:39:44.000Z,13.28
2022-10-27T17:42:13.075Z,13.28
2022-10-27T17:44:40.832Z,13.25
2022-10-27T17:47:08.550Z,13.19
2022-10-27T17:49:37.547Z,13.19
2022-10-27T17:52:05.513Z,13.19
2022-10-27T17:54:33.279Z,13.21
2022-10-27T17:57:01.038Z,13.20
2022-10-27T17:59:29.385Z,13.19
2022-10-27T18:01:57.270Z,13.18
2022-10-27T18:04:25.044Z,13.17
2022-10-27T18:06:54.089Z,13.12
2022-10-27T18:09:21.790Z,13.07
2022-10-27T18:11:49.548Z,13.00
2022-10-27T18:14:18.751Z,12.94
2022-10-27T18:16:46.484Z,12.88
2022-10-27T18:19:15.774Z,12.83
2022-10-27T18:21:45.098Z,12.87
2022-10-27T18:24:17.024Z,12.83
2022-10-27T18:26:47.956Z,12.79
2022-10-27T18:29:17.780Z,12.76
2022-10-27T18:31:47.472Z,12.69
2022-10-27T18:34:16.834Z,12.64
2022-10-27T18:36:45.620Z,12.54
2022-10-27T18:39:17.163Z,12.51
2022-10-27T18:41:45.361Z,12.45
2022-10-27T18:44:13.448Z,12.45
2022-10-27T18:46:41.146Z,12.43
2022-10-27T18:49:15.887Z,12.42
2022-10-27T18:51:44.169Z,12.34
2022-10-27T18:54:13.453Z,12.30
2022-10-27T18:56:42.733Z,12.28
2022-10-27T18:59:13.136Z,12.27
2022-10-27T19:01:42.045Z,12.20
2022-10-27T19:04:09.957Z,12.25
2022-10-27T19:06:37.972Z,12.23
2022-10-27T19:09:06.192Z,12.23
2022-10-27T19:11:36.530Z,12.20
2022-10-27T19:14:06.382Z,12.22
2022-10-27T19:16:34.112Z,12.15
2022-10-27T19:19:02.416Z,12.18
2022-10-27T19:21:30.949Z,12.18
2022-10-27T19:24:03.099Z,12.23
2022-10-27T19:26:32.314Z,12.21
2022-10-27T19:29:00.600Z,12.17
2022-10-27T19:31:33.169Z,12.20
2022-10-27T19:34:01.115Z,12.20
2022-10-27T19:36:30.996Z,12.20
2022-10-27T19:38:59.865Z,12.18
2022-10-27T19:41:29.883Z,12.15
2022-10-27T19:43:58.387Z,12.12
2022-10-27T19:46:27.404Z,12.09
2022-10-27T19:48:58.274Z,12.08
2022-10-27T19:51:28.264Z,12.09
2022-10-27T19:53:57.653Z,12.11
2022-10-27T19:56:27.179Z,12.09
2022-10-27T19:58:58.109Z,12.10
2022-10-27T20:01:27.497Z,12.08
2022-10-27T20:03:56.898Z,12.10
2022-10-27T20:06:24.908Z,12.11
2022-10-27T20:08:56.230Z,12.10
2022-10-27T20:11:26.190Z,12.13
2022-10-27T20:13:55.443Z,12.13
2022-10-27T20:16:27.544Z,12.12
2022-10-27T20:19:01.250Z,12.13
2022-10-27T20:21:29.655Z,12.13
2022-10-27T20:23:57.953Z,12.03
2022-10-27T20:26:29.777Z,11.93
2022-10-27T20:28:58.395Z,11.92
2022-10-27T20:31:26.149Z,11.94
2022-10-27T20:33:53.966Z,11.91
2022-10-27T20:36:23.199Z,11.88
2022-10-27T20:38:51.139Z,11.87
2022-10-27T20:41:20.703Z,11.86
2022-10-27T20:43:49.473Z,11.85
2022-10-27T20:46:17.187Z,11.86
2022-10-27T20:48:44.883Z,11.88
2022-10-27T20:51:15.087Z,11.90
2022-10-27T20:53:44.582Z,11.88
2022-10-27T20:56:15.959Z,11.84
2022-10-27T20:58:44.720Z,11.80
2022-10-27T21:01:16.615Z,11.79
2022-10-27T21:03:44.636Z,11.74
2022-10-27T21:06:12.304Z,11.68
2022-10-27T21:08:40.005Z,11.62
2022-10-27T21:11:09.090Z,11.50
2022-10-27T21:13:36.754Z,11.40
2022-10-27T21:16:04.467Z,11.38
2022-10-27T21:18:32.177Z,11.30
2022-10-27T21:20:59.815Z,11.24
2022-10-27T21:23:27.551Z,11.23
2022-10-27T21:25:55.276Z,11.21
2022-10-27T21:28:24.387Z,11.18
2022-10-27T21:30:52.091Z,11.12
2022-10-27T21:33:19.787Z,11.02
2022-10-27T21:35:49.756Z,10.93
2022-10-27T21:38:17.456Z,10.84
2022-10-27T21:40:45.108Z,10.83
2022-10-27T21:43:12.855Z,10.76
2022-10-27T21:45:41.964Z,10.77
2022-10-27T21:48:09.692Z,10.73
2022-10-27T21:50:38.565Z,10.77
2022-10-27T21:53:06.272Z,10.76
2022-10-27T21:55:33.990Z,10.72
2022-10-27T21:58:01.739Z,10.70
2022-10-27T22:00:29.490Z,10.69
2022-10-27T22:02:58.555Z,10.73
2022-10-27T22:05:26.295Z,10.68
2022-10-27T22:07:54.683Z,10.68
2022-10-27T22:10:22.543Z,10.64
2022-10-27T22:12:50.421Z,10.66
2022-10-27T22:15:18.386Z,10.63
2022-10-27T22:17:46.072Z,10.61
2022-10-27T22:20:15.296Z,10.60
2022-10-27T22:22:43.006Z,10.56
2022-10-27T22:25:11.191Z,10.58
2022-10-27T22:27:38.908Z,10.60
2022-10-27T22:30:08.098Z,10.59
2022-10-27T22:32:35.767Z,10.62
2022-10-27T22:35:03.494Z,10.66
2022-10-27T22:37:32.520Z,10.71
2022-10-27T22:40:00.201Z,10.72
2022-10-27T22:42:27.904Z,10.72
2022-10-27T22:44:55.558Z,10.73
2022-10-27T22:47:23.266Z,10.71
2022-10-27T22:49:53.116Z,10.70
2022-10-27T22:52:23.218Z,10.67
2022-10-27T22:54:52.259Z,10.69
2022-10-27T22:57:19.959Z,10.64
2022-10-27T23:02:20.373Z,10.53
2022-10-27T23:04:48.115Z,10.50
2022-10-27T23:07:15.800Z,10.44
2022-10-27T23:09:43.468Z,10.38
2022-10-27T23:12:12.515Z,10.34
2022-10-27T23:14:40.211Z,10.35
2022-10-27T23:17:07.921Z,10.33
2022-10-27T23:19:35.601Z,10.34
2022-10-27T23:22:03.280Z,10.33
2022-10-27T23:24:31.451Z,10.34
2022-10-27T23:26:59.469Z,10.32
2022-10-27T23:29:28.556Z,10.34
2022-10-27T23:31:56.243Z,10.35
2022-10-27T23:34:23.940Z,10.27
2022-10-27T23:36:51.634Z,10.18
2022-10-27T23:39:19.330Z,10.19
2022-10-27T23:41:47.039Z,10.20
2022-10-27T23:44:14.738Z,10.20
2022-10-27T23:46:43.799Z,10.16
2022-10-27T23:49:11.554Z,10.09
2022-10-27T23:51:39.257Z,10.07
2022-10-27T23:54:07.232Z,10.08
2022-10-27T23:56:34.915Z,10.14
2022-10-27T23:59:02.625Z,10.15
